UAL2318 KLAX-CYVR
Flight info
| Callsign | UAL2318 |
|---|---|
| Flight time | N/A |
| Altitude | 36000 |
| Route | SUMMR2 SCTRR DCT SNS J126 SAC DCT LMT J65 SEA DCT PAE GRIZZ9 |
| Aircraft | A321/M-SDE3FGHIRWY/LB1 |
Departure
| Time | 2026-05-06 01:10 |
|---|---|
| Airport | Los Angeles International Airport (KLAX) |
Arrival
| Time | N/A |
|---|---|
| Airport | Vancouver International Airport (CYVR) |
| Time | Latitude | Longitude | Altitude | Speed | Heading |
|---|---|---|---|---|---|
| 2026-05-06 00:47 | 33.94154 | -118.39903 | 117 ft | 0 kts | 284° |
| 2026-05-06 00:58 | 33.94154 | -118.39902 | 117 ft | 0 kts | 284° |
| 2026-05-06 00:58 | 33.94151 | -118.39892 | 117 ft | 2 kts | 284° |
| 2026-05-06 00:59 | 33.94148 | -118.39874 | 116 ft | 2 kts | 284° |
| 2026-05-06 00:59 | 33.94146 | -118.39862 | 116 ft | 1 kts | 284° |
| 2026-05-06 00:59 | 33.94146 | -118.39848 | 116 ft | 1 kts | 228° |
| 2026-05-06 00:59 | 33.94157 | -118.39841 | 116 ft | 0 kts | 178° |
| 2026-05-06 01:00 | 33.94154 | -118.39842 | 116 ft | 2 kts | 182° |
| 2026-05-06 01:00 | 33.94112 | -118.39837 | 116 ft | 6 kts | 173° |
| 2026-05-06 01:00 | 33.94085 | -118.39833 | 116 ft | 1 kts | 173° |
| 2026-05-06 01:00 | 33.94084 | -118.39833 | 116 ft | 0 kts | 173° |
| 2026-05-06 01:04 | 33.94059 | -118.39830 | 115 ft | 7 kts | 175° |
| 2026-05-06 01:04 | 33.93982 | -118.39820 | 115 ft | 14 kts | 174° |
| 2026-05-06 01:04 | 33.93906 | -118.39738 | 114 ft | 18 kts | 89° |
| 2026-05-06 01:05 | 33.93923 | -118.39569 | 112 ft | 21 kts | 83° |
| 2026-05-06 01:05 | 33.93939 | -118.39408 | 110 ft | 11 kts | 83° |
| 2026-05-06 01:05 | 33.93948 | -118.39320 | 109 ft | 11 kts | 83° |
| 2026-05-06 01:05 | 33.93959 | -118.39217 | 108 ft | 13 kts | 83° |
| 2026-05-06 01:06 | 33.93971 | -118.39098 | 107 ft | 15 kts | 82° |
| 2026-05-06 01:06 | 33.93985 | -118.38969 | 107 ft | 15 kts | 83° |
| 2026-05-06 01:06 | 33.93999 | -118.38833 | 106 ft | 17 kts | 84° |
| 2026-05-06 01:06 | 33.94012 | -118.38688 | 105 ft | 17 kts | 83° |
| 2026-05-06 01:07 | 33.94028 | -118.38539 | 105 ft | 18 kts | 82° |
| 2026-05-06 01:07 | 33.94044 | -118.38383 | 104 ft | 18 kts | 83° |
| 2026-05-06 01:07 | 33.94060 | -118.38226 | 103 ft | 19 kts | 83° |
| 2026-05-06 01:07 | 33.94073 | -118.38095 | 103 ft | 10 kts | 84° |
| 2026-05-06 01:08 | 33.94074 | -118.38036 | 103 ft | 0 kts | 107° |
| 2026-05-06 01:08 | 33.94073 | -118.38030 | 103 ft | 4 kts | 111° |
| 2026-05-06 01:08 | 33.94006 | -118.38006 | 103 ft | 16 kts | 202° |
| 2026-05-06 01:08 | 33.93978 | -118.38084 | 103 ft | 0 kts | 263° |
| 2026-05-06 01:09 | 33.93978 | -118.38086 | 103 ft | 0 kts | 263° |
| 2026-05-06 01:09 | 33.93973 | -118.38127 | 103 ft | 26 kts | 263° |
| 2026-05-06 01:09 | 33.93917 | -118.38673 | 105 ft | 101 kts | 263° |
| 2026-05-06 01:10 | 33.93804 | -118.39777 | 138 ft | 157 kts | 262° |
| 2026-05-06 01:10 | 33.93668 | -118.41108 | 653 ft | 164 kts | 262° |
| 2026-05-06 01:10 | 33.93528 | -118.42444 | 1348 ft | 164 kts | 262° |
| 2026-05-06 01:10 | 33.93397 | -118.43782 | 1992 ft | 164 kts | 263° |
| 2026-05-06 01:11 | 33.93259 | -118.45171 | 2300 ft | 171 kts | 263° |
| 2026-05-06 01:11 | 33.93116 | -118.46643 | 2548 ft | 183 kts | 264° |
| 2026-05-06 01:11 | 33.92983 | -118.48216 | 2801 ft | 195 kts | 265° |
| 2026-05-06 01:11 | 33.92844 | -118.49911 | 3034 ft | 211 kts | 265° |
| 2026-05-06 01:12 | 33.92695 | -118.51748 | 3249 ft | 232 kts | 265° |
| 2026-05-06 01:12 | 33.92532 | -118.53750 | 3593 ft | 249 kts | 265° |
| 2026-05-06 01:12 | 33.92357 | -118.55863 | 4108 ft | 260 kts | 265° |
| 2026-05-06 01:12 | 33.92176 | -118.58031 | 4668 ft | 263 kts | 266° |
| 2026-05-06 01:13 | 33.91992 | -118.60237 | 4955 ft | 265 kts | 266° |
| 2026-05-06 01:13 | 33.91823 | -118.62460 | 5295 ft | 273 kts | 268° |
| 2026-05-06 01:13 | 33.91773 | -118.64781 | 6330 ft | 281 kts | 272° |
| 2026-05-06 01:13 | 33.91761 | -118.67072 | 7601 ft | 278 kts | 272° |
| 2026-05-06 01:14 | 33.91748 | -118.71764 | 9623 ft | 287 kts | 272° |
| 2026-05-06 01:14 | 33.91740 | -118.74163 | 10539 ft | 293 kts | 272° |